createdAt,value
2018-09-23T00:01:36.627Z,98977.84
2018-09-23T00:04:41.597Z,98972.39
2018-09-23T00:07:46.585Z,98974.38
2018-09-23T00:10:51.566Z,98966.64
2018-09-23T00:13:56.530Z,98953.61
2018-09-23T00:17:01.502Z,98958.05
2018-09-23T00:20:06.517Z,98945.56
2018-09-23T00:23:11.477Z,98943.78
2018-09-23T00:26:16.464Z,98937.80
2018-09-23T00:29:54.679Z,98935.34
2018-09-23T00:32:59.671Z,98925.20
2018-09-23T00:36:04.649Z,98929.58
2018-09-23T00:39:09.622Z,98923.50
2018-09-23T00:42:14.600Z,98915.89
2018-09-23T00:45:19.593Z,98912.42
2018-09-23T00:48:24.565Z,98911.26
2018-09-23T00:51:29.534Z,98901.83
2018-09-23T00:54:34.533Z,98896.16
2018-09-23T00:57:39.569Z,98892.30
2018-09-23T01:00:44.559Z,98887.66
2018-09-23T01:03:49.566Z,98875.47
2018-09-23T01:06:54.559Z,98875.34
2018-09-23T01:09:59.573Z,98868.80
2018-09-23T01:13:04.618Z,98864.62
2018-09-23T01:16:09.617Z,98853.73
2018-09-23T01:19:14.599Z,98851.87
2018-09-23T01:22:19.613Z,98837.81
2018-09-23T01:25:24.602Z,98828.39
2018-09-23T01:28:29.595Z,98823.12
2018-09-23T01:31:34.581Z,98819.16
2018-09-23T01:34:39.574Z,98811.63
2018-09-23T01:37:44.601Z,98811.73
2018-09-23T01:40:49.574Z,98802.72
2018-09-23T01:43:54.597Z,98796.56
2018-09-23T01:46:59.592Z,98790.31
2018-09-23T01:50:04.797Z,98786.85
2018-09-23T01:53:09.795Z,98776.14
2018-09-23T01:56:14.808Z,98779.52
2018-09-23T01:59:19.843Z,98774.55
2018-09-23T02:02:24.833Z,98768.00
2018-09-23T02:05:29.811Z,98767.41
2018-09-23T02:08:34.806Z,98760.88
2018-09-23T02:11:39.802Z,98753.66
2018-09-23T02:14:44.790Z,98747.59
2018-09-23T02:17:49.796Z,98740.97
2018-09-23T02:20:54.990Z,98736.22
2018-09-23T02:23:59.975Z,98718.87
2018-09-23T02:27:05.015Z,98716.77
2018-09-23T02:30:10.018Z,98701.31
2018-09-23T02:33:15.033Z,98702.70
2018-09-23T02:36:20.018Z,98691.52
2018-09-23T02:39:25.024Z,98684.48
2018-09-23T02:42:30.011Z,98685.07
2018-09-23T02:45:34.982Z,98663.57
2018-09-23T02:48:39.961Z,98660.88
2018-09-23T02:51:44.961Z,98649.00
2018-09-23T02:54:49.950Z,98639.39
2018-09-23T02:57:54.949Z,98634.02
2018-09-23T03:00:59.922Z,98627.98
2018-09-23T03:04:04.944Z,98617.38
2018-09-23T03:07:10.085Z,98614.20
2018-09-23T03:10:15.082Z,98606.48
2018-09-23T03:13:20.089Z,98598.23
2018-09-23T03:16:25.074Z,98594.58
2018-09-23T03:19:30.065Z,98592.06
2018-09-23T03:22:35.090Z,98580.47
2018-09-23T03:25:40.066Z,98575.61
2018-09-23T03:28:45.042Z,98567.59
2018-09-23T03:31:50.023Z,98560.08
2018-09-23T03:34:55.002Z,98558.38
2018-09-23T03:37:59.960Z,98559.85
2018-09-23T03:41:04.957Z,98548.77
2018-09-23T03:44:16.845Z,98554.59
2018-09-23T03:47:22.049Z,98544.19
2018-09-23T03:50:27.068Z,98539.33
2018-09-23T03:53:32.043Z,98525.80
2018-09-23T03:56:37.026Z,98526.01
2018-09-23T03:59:41.979Z,98514.17
2018-09-23T04:02:46.943Z,98506.84
2018-09-23T04:05:51.921Z,98510.00
2018-09-23T04:08:56.894Z,98507.02
2018-09-23T04:12:01.970Z,98504.96
2018-09-23T04:15:06.926Z,98494.55
2018-09-23T04:18:11.897Z,98484.50
2018-09-23T04:21:16.918Z,98480.86
2018-09-23T04:24:21.882Z,98479.92
2018-09-23T04:27:26.890Z,98467.03
2018-09-23T04:30:31.876Z,98463.84
2018-09-23T04:33:37.061Z,98455.83
2018-09-23T04:36:42.114Z,98439.13
2018-09-23T04:39:47.106Z,98435.59
2018-09-23T04:42:52.093Z,98436.88
2018-09-23T04:45:57.090Z,98434.12
2018-09-23T04:49:02.327Z,98429.66
2018-09-23T04:52:07.355Z,98426.52
2018-09-23T04:55:12.378Z,98421.82
2018-09-23T04:58:17.326Z,98417.59
2018-09-23T05:01:22.362Z,98416.86
2018-09-23T05:04:27.345Z,98419.86
2018-09-23T05:07:32.372Z,98410.45
2018-09-23T05:10:37.388Z,98418.70
2018-09-23T05:14:50.878Z,98405.70
2018-09-23T05:17:55.907Z,98398.87
2018-09-23T05:21:00.892Z,98398.87
2018-09-23T05:24:05.945Z,98397.19
2018-09-23T05:27:10.960Z,98396.30
2018-09-23T05:30:15.958Z,98394.29
2018-09-23T05:33:20.978Z,98384.52
2018-09-23T05:36:26.015Z,98389.64
2018-09-23T05:39:31.031Z,98389.73
2018-09-23T05:42:36.120Z,98381.50
2018-09-23T05:45:41.169Z,98374.86
2018-09-23T05:48:46.240Z,98370.81
2018-09-23T05:51:51.307Z,98370.47
2018-09-23T05:54:56.407Z,98365.16
2018-09-23T05:58:01.538Z,98369.83
2018-09-23T06:01:06.759Z,98365.72
2018-09-23T06:04:11.790Z,98358.52
2018-09-23T06:07:17.043Z,98359.39
2018-09-23T06:10:22.137Z,98357.17
2018-09-23T06:13:27.186Z,98359.72
2018-09-23T06:16:32.246Z,98345.21
2018-09-23T06:19:37.681Z,98354.72
2018-09-23T06:22:42.698Z,98339.81
2018-09-23T06:25:47.714Z,98335.58
2018-09-23T06:28:52.797Z,98332.28
2018-09-23T06:31:57.894Z,98336.47
2018-09-23T06:35:02.935Z,98331.57
2018-09-23T06:38:07.879Z,98322.52
2018-09-23T06:41:13.004Z,98331.26
2018-09-23T06:44:17.952Z,98331.44
2018-09-23T06:47:23.178Z,98327.98
2018-09-23T06:50:35.101Z,98319.66
2018-09-23T06:53:40.065Z,98316.66
2018-09-23T06:56:45.054Z,98310.53
2018-09-23T06:59:50.116Z,98313.92
2018-09-23T07:02:55.288Z,98310.38
2018-09-23T07:06:00.505Z,98295.67
2018-09-23T07:09:07.995Z,98300.26
2018-09-23T07:12:13.191Z,98301.86
2018-09-23T07:15:18.476Z,98302.55
2018-09-23T07:18:23.726Z,98301.13
2018-09-23T07:21:29.435Z,98297.88
2018-09-23T07:24:34.723Z,98299.42
2018-09-23T07:27:40.415Z,98305.50
2018-09-23T07:30:45.834Z,98297.07
2018-09-23T07:33:51.015Z,98297.88
2018-09-23T07:36:56.193Z,98298.48
2018-09-23T07:40:01.664Z,98296.13
2018-09-23T07:43:07.002Z,98279.80
2018-09-23T07:46:12.335Z,98278.95
2018-09-23T07:49:18.040Z,98279.70
2018-09-23T07:52:23.384Z,98280.03
2018-09-23T07:55:28.761Z,98279.03
2018-09-23T07:58:33.948Z,98269.34
2018-09-23T08:01:39.368Z,98275.14
2018-09-23T08:04:44.710Z,98276.20
2018-09-23T08:07:50.183Z,98276.51
2018-09-23T08:10:55.564Z,98275.78
2018-09-23T08:17:07.628Z,98263.70
2018-09-23T08:20:13.496Z,98268.09
2018-09-23T08:23:20.468Z,98266.67
2018-09-23T08:26:27.672Z,98265.19
2018-09-23T08:29:36.090Z,98263.13
2018-09-23T08:32:42.746Z,98260.38
2018-09-23T08:38:52.026Z,98250.41
2018-09-23T08:41:58.445Z,98254.02
2018-09-23T08:45:04.037Z,98258.34
2018-09-23T08:48:09.072Z,98255.83
2018-09-23T08:51:14.407Z,98256.41
2018-09-23T08:54:19.441Z,98255.83
2018-09-23T08:57:24.405Z,98255.18
2018-09-23T09:00:31.402Z,98259.17
2018-09-23T09:03:36.498Z,98253.27
2018-09-23T09:06:41.530Z,98251.84
2018-09-23T09:09:47.786Z,98239.70
2018-09-23T09:12:52.930Z,98247.33
2018-09-23T09:15:57.952Z,98234.44
2018-09-23T09:19:04.211Z,98239.18
2018-09-23T09:22:09.541Z,98225.53
2018-09-23T09:25:14.643Z,98220.36
2018-09-23T09:28:20.118Z,98221.94
2018-09-23T09:31:25.399Z,98208.27
2018-09-23T09:34:32.409Z,98196.31
2018-09-23T09:37:38.167Z,98195.83
2018-09-23T09:40:44.042Z,98197.39
2018-09-23T09:43:49.954Z,98190.35
2018-09-23T09:46:56.651Z,98178.58
2018-09-23T09:50:02.768Z,98183.20
2018-09-23T09:53:09.613Z,98167.00
2018-09-23T09:56:14.746Z,98173.55
2018-09-23T09:59:22.005Z,98168.09
2018-09-23T10:02:27.079Z,98155.89
2018-09-23T10:05:32.157Z,98148.01
2018-09-23T10:08:37.346Z,98143.87
2018-09-23T10:11:44.462Z,98134.18
2018-09-23T10:14:49.534Z,98137.99
2018-09-23T10:17:54.617Z,98133.45
2018-09-23T10:21:00.360Z,98129.29
2018-09-23T10:24:06.502Z,98125.02
2018-09-23T10:27:11.919Z,98120.92
2018-09-23T10:30:16.993Z,98130.80
2018-09-23T10:33:22.258Z,98109.73
2018-09-23T10:36:27.420Z,98124.11
2018-09-23T10:39:32.770Z,98109.84
2018-09-23T10:42:37.942Z,98103.73
2018-09-23T10:45:42.984Z,98095.20
2018-09-23T10:48:48.479Z,98086.19
2018-09-23T10:51:53.565Z,98095.02
2018-09-23T10:54:59.664Z,98076.52
2018-09-23T10:58:04.898Z,98076.73
2018-09-23T11:01:10.103Z,98065.84
2018-09-23T11:04:15.291Z,98063.78
2018-09-23T11:07:21.175Z,98071.16
2018-09-23T11:10:26.142Z,98055.61
2018-09-23T11:13:31.190Z,98057.41
2018-09-23T11:16:36.241Z,98055.28
2018-09-23T11:19:41.255Z,98045.08
2018-09-23T11:22:46.257Z,98040.06
2018-09-23T11:25:51.404Z,98031.53
2018-09-23T11:28:56.424Z,98019.58
2018-09-23T11:32:01.403Z,98010.95
2018-09-23T11:35:06.772Z,98001.42
2018-09-23T11:38:11.787Z,97992.38
2018-09-23T11:41:16.864Z,97971.28
2018-09-23T11:44:23.100Z,97969.80
2018-09-23T11:47:28.453Z,97959.37
2018-09-23T11:50:33.491Z,97957.14
2018-09-23T11:53:38.485Z,97960.39
2018-09-23T11:56:43.529Z,97932.88
2018-09-23T11:59:48.602Z,97909.26
2018-09-23T12:02:54.393Z,97911.44
2018-09-23T12:05:59.538Z,97883.95
2018-09-23T12:09:07.358Z,97879.61
2018-09-23T12:56:46.512Z,97763.06
2018-09-23T12:59:52.792Z,97749.81
2018-09-23T13:02:57.980Z,97713.34
2018-09-23T13:06:03.331Z,97722.61
2018-09-23T13:09:08.436Z,97702.36
2018-09-23T13:12:13.451Z,97691.52
2018-09-23T13:15:21.163Z,97679.73
2018-09-23T13:18:26.243Z,97667.52
2018-09-23T13:21:32.718Z,97654.86
2018-09-23T13:24:37.971Z,97652.38
2018-09-23T13:27:43.087Z,97636.61
2018-09-23T13:30:48.373Z,97634.13
2018-09-23T13:33:53.380Z,97629.78
2018-09-23T13:36:58.496Z,97615.14
2018-09-23T13:40:04.678Z,97619.79
2018-09-23T13:43:09.811Z,97642.97
2018-09-23T13:46:14.864Z,97645.78
2018-09-23T13:49:19.921Z,97650.44
2018-09-23T13:52:24.997Z,97635.19
2018-09-23T13:55:30.049Z,97626.30
2018-09-23T13:58:36.008Z,97612.61
2018-09-23T14:01:41.071Z,97600.06
2018-09-23T14:04:46.166Z,97596.78
2018-09-23T14:07:51.237Z,97575.00
2018-09-23T14:10:56.220Z,97560.23
2018-09-23T14:14:01.503Z,97550.84
2018-09-23T14:17:06.549Z,97563.05
2018-09-23T14:20:11.641Z,97520.97
2018-09-23T14:23:16.670Z,97506.75
2018-09-23T14:26:22.091Z,97502.11
2018-09-23T14:54:39.371Z,97817.12
2018-09-23T14:57:47.629Z,97808.80
2018-09-23T15:00:59.839Z,97807.30
2018-09-23T15:04:14.064Z,97810.12
2018-09-23T15:07:27.630Z,97844.86
2018-09-23T15:10:43.545Z,97853.23
2018-09-23T15:13:56.051Z,97885.62
2018-09-23T15:17:06.379Z,97911.05
2018-09-23T15:20:35.685Z,97920.68
2018-09-23T15:23:46.102Z,97928.86
2018-09-23T15:26:59.460Z,97901.12
2018-09-23T15:30:10.887Z,97891.52
2018-09-23T15:33:31.481Z,97856.61
2018-09-23T15:37:00.007Z,97880.32
2018-09-23T15:40:15.772Z,97902.33
2018-09-23T15:43:28.911Z,97907.85
2018-09-23T15:46:40.324Z,97952.33
2018-09-23T15:49:53.832Z,97965.49
2018-09-23T15:53:03.568Z,97962.95
2018-09-23T15:56:11.412Z,97967.03
2018-09-23T15:59:26.678Z,97979.08
2018-09-23T16:02:34.431Z,98025.17
2018-09-23T16:05:39.701Z,98010.70
2018-09-23T16:08:47.189Z,98029.76
2018-09-23T16:12:06.592Z,98084.28
2018-09-23T16:15:12.283Z,98105.19
2018-09-23T16:18:18.622Z,98093.16
2018-09-23T16:21:27.649Z,98097.30
2018-09-23T16:24:34.087Z,98084.73
2018-09-23T16:27:43.887Z,98093.13
2018-09-23T16:30:57.233Z,98110.45
2018-09-23T16:34:06.408Z,98147.13
2018-09-23T16:37:14.235Z,98159.20
2018-09-23T16:40:24.565Z,98135.69
2018-09-23T16:43:31.020Z,98137.16
2018-09-23T16:46:38.106Z,98169.25
2018-09-23T16:49:47.270Z,98168.21
2018-09-23T16:52:53.649Z,98209.45
2018-09-23T16:55:58.777Z,98261.81
2018-09-23T16:59:06.202Z,98233.76
2018-09-23T17:02:12.281Z,98256.28
2018-09-23T17:05:18.924Z,98339.21
2018-09-23T17:08:26.397Z,98321.25
2018-09-23T17:11:32.243Z,98351.91
2018-09-23T17:14:37.409Z,98341.80
2018-09-23T17:17:43.566Z,98350.17
2018-09-23T17:20:49.780Z,98324.44
2018-09-23T17:23:56.195Z,98294.56
2018-09-23T17:27:01.917Z,98338.94
2018-09-23T17:30:07.959Z,98310.45
2018-09-23T17:33:14.305Z,98362.33
2018-09-23T17:36:20.156Z,98380.55
2018-09-23T17:39:26.281Z,98403.36
2018-09-23T17:42:32.485Z,98407.34
2018-09-23T17:45:38.325Z,98405.35
2018-09-23T17:48:45.466Z,98437.00
2018-09-23T17:51:52.010Z,98455.08
2018-09-23T17:54:58.215Z,98476.52
2018-09-23T17:58:04.435Z,98485.76
2018-09-23T18:01:10.581Z,98495.55
2018-09-23T18:04:17.437Z,98521.13
2018-09-23T18:07:22.611Z,98514.31
2018-09-23T18:10:29.035Z,98553.73
2018-09-23T18:13:34.132Z,98572.05
2018-09-23T18:16:41.449Z,98572.30
2018-09-23T18:19:47.807Z,98597.86
2018-09-23T18:22:54.065Z,98616.02
2018-09-23T18:26:00.615Z,98668.22
2018-09-23T18:29:08.099Z,98678.59
2018-09-23T18:32:13.465Z,98690.14
2018-09-23T18:35:18.623Z,98719.84
2018-09-23T18:38:25.033Z,98743.84
2018-09-23T18:41:30.068Z,98762.64
2018-09-23T18:44:35.346Z,98788.16
2018-09-23T18:47:41.526Z,98810.89
2018-09-23T18:50:46.651Z,98819.79
2018-09-23T18:53:57.652Z,98827.16
2018-09-23T18:57:04.412Z,98853.76
2018-09-23T19:00:11.940Z,98862.59
2018-09-23T19:03:18.178Z,98874.19
2018-09-23T19:06:24.032Z,98882.95
2018-09-23T19:09:29.134Z,98883.50
2018-09-23T19:12:34.470Z,98884.78
2018-09-23T19:15:40.680Z,98877.72
2018-09-23T19:18:45.778Z,98889.36
2018-09-23T19:21:52.075Z,98896.94
2018-09-23T19:24:59.987Z,98907.22
2018-09-23T19:28:05.043Z,98923.96
2018-09-23T19:31:11.029Z,98913.69
2018-09-23T19:34:16.986Z,98934.52
2018-09-23T19:37:23.158Z,98942.58
2018-09-23T19:40:28.738Z,98956.70
2018-09-23T19:43:33.937Z,98961.06
2018-09-23T19:46:39.598Z,98979.15
2018-09-23T19:49:46.429Z,99005.36
2018-09-23T19:53:01.897Z,99014.21
2018-09-23T19:56:08.933Z,99013.33
2018-09-23T19:59:19.988Z,99035.09
2018-09-23T20:02:32.508Z,99050.66
2018-09-23T20:05:39.681Z,99057.20
2018-09-23T20:08:45.621Z,99055.95
2018-09-23T20:11:51.602Z,99072.63
2018-09-23T20:14:57.438Z,99081.53
2018-09-23T20:18:02.505Z,99100.88
2018-09-23T20:21:07.569Z,99115.51
2018-09-23T20:24:13.589Z,99130.38
2018-09-23T20:27:19.488Z,99149.94
2018-09-23T20:30:27.347Z,99151.72
2018-09-23T20:33:33.975Z,99175.33
2018-09-23T20:36:40.387Z,99187.15
2018-09-23T20:39:45.820Z,99203.28
2018-09-23T20:42:52.021Z,99204.58
2018-09-23T20:45:59.434Z,99216.77
2018-09-23T20:49:05.519Z,99224.83
2018-09-23T20:52:10.810Z,99241.75
2018-09-23T20:55:16.146Z,99246.13
2018-09-23T20:58:23.949Z,99251.22
2018-09-23T21:01:29.115Z,99259.20
2018-09-23T21:04:36.522Z,99263.30
2018-09-23T21:07:48.114Z,99265.61
2018-09-23T21:25:22.631Z,99315.44
2018-09-23T21:28:27.739Z,99330.33
2018-09-23T21:31:34.094Z,99339.42
2018-09-23T21:34:39.183Z,99350.33
2018-09-23T21:37:44.240Z,99358.27
2018-09-23T21:40:50.345Z,99367.63
2018-09-23T21:43:57.066Z,99367.50
2018-09-23T21:47:02.135Z,99376.77
2018-09-23T21:50:07.229Z,99383.98
2018-09-23T21:53:13.549Z,99389.16
2018-09-23T21:56:18.616Z,99401.09
2018-09-23T22:02:27.045Z,99414.83
2018-09-23T22:05:34.069Z,99424.60
2018-09-23T22:08:39.177Z,99426.42
2018-09-23T22:11:44.229Z,99440.25
2018-09-23T22:14:49.274Z,99441.28
2018-09-23T22:17:56.133Z,99440.00
2018-09-23T22:21:01.211Z,99441.92
2018-09-23T22:24:06.346Z,99468.97
2018-09-23T22:27:11.398Z,99468.66
2018-09-23T22:30:17.338Z,99477.11
2018-09-23T22:33:22.337Z,99485.30
2018-09-23T22:36:28.182Z,99505.83
2018-09-23T22:39:33.224Z,99517.42
2018-09-23T22:42:38.489Z,99521.00
2018-09-23T22:45:44.004Z,99533.80
2018-09-23T22:48:51.293Z,99553.54
2018-09-23T22:51:56.383Z,99558.90
2018-09-23T22:55:01.410Z,99562.66
2018-09-23T22:58:06.450Z,99569.48
2018-09-23T23:01:12.101Z,99587.30
2018-09-23T23:04:17.168Z,99595.46
2018-09-23T23:07:22.922Z,99594.92
2018-09-23T23:10:28.968Z,99607.67
2018-09-23T23:13:35.458Z,99615.37
2018-09-23T23:16:41.715Z,99626.16
2018-09-23T23:19:47.558Z,99633.05
2018-09-23T23:22:53.442Z,99638.45
2018-09-23T23:25:58.480Z,99637.63
2018-09-23T23:29:03.525Z,99638.95
2018-09-23T23:32:08.756Z,99638.63
2018-09-23T23:35:13.766Z,99649.23
2018-09-23T23:38:18.790Z,99657.44
2018-09-23T23:41:24.487Z,99663.13
2018-09-23T23:44:30.205Z,99668.24
2018-09-23T23:47:35.340Z,99678.27
2018-09-23T23:50:40.316Z,99688.56
2018-09-23T23:53:45.327Z,99699.10
2018-09-23T23:56:50.779Z,99708.62
2018-09-23T23:59:58.502Z,99717.20
